sensor_id;sensor_type;location;lat;lon;timestamp;P1;durP1;ratioP1;P2;durP2;ratioP2
16969;SDS011;8601;48.718;8.992;2022-12-24T00:00:02;2.67;;;1.60;;
16969;SDS011;8601;48.718;8.992;2022-12-24T00:02:31;6.63;;;2.00;;
16969;SDS011;8601;48.718;8.992;2022-12-24T00:04:58;3.70;;;1.50;;
16969;SDS011;8601;48.718;8.992;2022-12-24T00:07:25;4.33;;;1.87;;
16969;SDS011;8601;48.718;8.992;2022-12-24T00:09:53;5.57;;;1.70;;
16969;SDS011;8601;48.718;8.992;2022-12-24T00:12:20;6.50;;;2.10;;
16969;SDS011;8601;48.718;8.992;2022-12-24T00:14:47;4.77;;;1.80;;
16969;SDS011;8601;48.718;8.992;2022-12-24T00:17:14;5.87;;;1.60;;
16969;SDS011;8601;48.718;8.992;2022-12-24T00:19:42;4.47;;;1.83;;
16969;SDS011;8601;48.718;8.992;2022-12-24T00:22:09;3.27;;;1.90;;
16969;SDS011;8601;48.718;8.992;2022-12-24T00:24:35;3.30;;;1.50;;
16969;SDS011;8601;48.718;8.992;2022-12-24T00:27:03;4.90;;;2.20;;
16969;SDS011;8601;48.718;8.992;2022-12-24T00:29:30;4.23;;;1.83;;
16969;SDS011;8601;48.718;8.992;2022-12-24T00:31:57;2.90;;;1.50;;
16969;SDS011;8601;48.718;8.992;2022-12-24T00:34:24;7.40;;;2.10;;
16969;SDS011;8601;48.718;8.992;2022-12-24T00:36:53;4.33;;;1.90;;
16969;SDS011;8601;48.718;8.992;2022-12-24T00:39:20;5.37;;;1.83;;
16969;SDS011;8601;48.718;8.992;2022-12-24T00:41:47;6.70;;;2.40;;
16969;SDS011;8601;48.718;8.992;2022-12-24T00:44:14;4.00;;;2.23;;
16969;SDS011;8601;48.718;8.992;2022-12-24T00:46:41;7.67;;;2.30;;
16969;SDS011;8601;48.718;8.992;2022-12-24T00:49:08;7.07;;;2.00;;
16969;SDS011;8601;48.718;8.992;2022-12-24T00:51:37;4.87;;;1.70;;
16969;SDS011;8601;48.718;8.992;2022-12-24T00:54:06;6.57;;;1.90;;
16969;SDS011;8601;48.718;8.992;2022-12-24T00:56:33;7.10;;;1.90;;
16969;SDS011;8601;48.718;8.992;2022-12-24T00:59:00;5.87;;;2.00;;
16969;SDS011;8601;48.718;8.992;2022-12-24T01:01:27;4.73;;;1.80;;
16969;SDS011;8601;48.718;8.992;2022-12-24T01:03:56;6.80;;;1.87;;
16969;SDS011;8601;48.718;8.992;2022-12-24T01:06:37;4.87;;;1.70;;
16969;SDS011;8601;48.718;8.992;2022-12-24T01:09:04;6.10;;;1.97;;
16969;SDS011;8601;48.718;8.992;2022-12-24T01:11:32;7.90;;;2.37;;
16969;SDS011;8601;48.718;8.992;2022-12-24T01:13:59;6.27;;;1.70;;
16969;SDS011;8601;48.718;8.992;2022-12-24T01:16:26;7.67;;;2.17;;
16969;SDS011;8601;48.718;8.992;2022-12-24T01:18:53;5.47;;;2.20;;
16969;SDS011;8601;48.718;8.992;2022-12-24T01:21:20;4.43;;;2.23;;
16969;SDS011;8601;48.718;8.992;2022-12-24T01:23:47;5.17;;;1.97;;
16969;SDS011;8601;48.718;8.992;2022-12-24T01:26:14;4.93;;;2.30;;
16969;SDS011;8601;48.718;8.992;2022-12-24T01:28:42;4.90;;;2.20;;
16969;SDS011;8601;48.718;8.992;2022-12-24T01:31:10;6.17;;;2.03;;
16969;SDS011;8601;48.718;8.992;2022-12-24T01:33:38;5.80;;;2.33;;
16969;SDS011;8601;48.718;8.992;2022-12-24T01:36:05;7.40;;;2.10;;
16969;SDS011;8601;48.718;8.992;2022-12-24T01:38:32;6.50;;;2.20;;
16969;SDS011;8601;48.718;8.992;2022-12-24T01:40:59;4.73;;;1.97;;
16969;SDS011;8601;48.718;8.992;2022-12-24T01:43:45;5.93;;;2.30;;
16969;SDS011;8601;48.718;8.992;2022-12-24T01:46:13;9.13;;;2.50;;
16969;SDS011;8601;48.718;8.992;2022-12-24T01:48:44;7.83;;;2.30;;
16969;SDS011;8601;48.718;8.992;2022-12-24T01:51:16;7.20;;;2.20;;
16969;SDS011;8601;48.718;8.992;2022-12-24T01:53:50;7.77;;;2.53;;
16969;SDS011;8601;48.718;8.992;2022-12-24T01:56:20;7.03;;;2.10;;
16969;SDS011;8601;48.718;8.992;2022-12-24T01:58:51;6.17;;;2.60;;
16969;SDS011;8601;48.718;8.992;2022-12-24T02:01:21;7.73;;;2.10;;
16969;SDS011;8601;48.718;8.992;2022-12-24T02:03:48;6.40;;;3.17;;
16969;SDS011;8601;48.718;8.992;2022-12-24T02:06:16;6.17;;;2.37;;
16969;SDS011;8601;48.718;8.992;2022-12-24T02:08:46;6.53;;;2.10;;
16969;SDS011;8601;48.718;8.992;2022-12-24T02:11:14;7.20;;;2.57;;
16969;SDS011;8601;48.718;8.992;2022-12-24T02:13:42;5.43;;;2.07;;
16969;SDS011;8601;48.718;8.992;2022-12-24T02:16:18;6.70;;;2.20;;
16969;SDS011;8601;48.718;8.992;2022-12-24T02:18:56;5.97;;;2.30;;
16969;SDS011;8601;48.718;8.992;2022-12-24T02:21:34;7.47;;;2.30;;
16969;SDS011;8601;48.718;8.992;2022-12-24T02:27:20;6.80;;;2.50;;
16969;SDS011;8601;48.718;8.992;2022-12-24T02:32:51;5.70;;;2.37;;
16969;SDS011;8601;48.718;8.992;2022-12-24T02:35:31;7.23;;;2.60;;
16969;SDS011;8601;48.718;8.992;2022-12-24T02:38:05;6.40;;;2.10;;
16969;SDS011;8601;48.718;8.992;2022-12-24T02:40:39;9.03;;;3.20;;
16969;SDS011;8601;48.718;8.992;2022-12-24T02:43:10;6.03;;;2.40;;
16969;SDS011;8601;48.718;8.992;2022-12-24T02:45:44;6.23;;;2.60;;
16969;SDS011;8601;48.718;8.992;2022-12-24T02:48:16;7.87;;;2.40;;
16969;SDS011;8601;48.718;8.992;2022-12-24T02:50:56;9.07;;;2.33;;
16969;SDS011;8601;48.718;8.992;2022-12-24T02:53:26;7.03;;;2.13;;
16969;SDS011;8601;48.718;8.992;2022-12-24T02:56:06;9.07;;;2.43;;
16969;SDS011;8601;48.718;8.992;2022-12-24T02:58:47;6.13;;;2.13;;
16969;SDS011;8601;48.718;8.992;2022-12-24T03:01:33;7.77;;;2.17;;
16969;SDS011;8601;48.718;8.992;2022-12-24T03:04:13;9.70;;;3.90;;
16969;SDS011;8601;48.718;8.992;2022-12-24T03:07:05;10.63;;;2.90;;
16969;SDS011;8601;48.718;8.992;2022-12-24T03:09:53;12.10;;;3.03;;
16969;SDS011;8601;48.718;8.992;2022-12-24T03:12:31;8.43;;;2.50;;
16969;SDS011;8601;48.718;8.992;2022-12-24T03:15:02;9.63;;;2.30;;
16969;SDS011;8601;48.718;8.992;2022-12-24T03:17:35;7.60;;;2.47;;
16969;SDS011;8601;48.718;8.992;2022-12-24T03:20:05;6.27;;;2.60;;
16969;SDS011;8601;48.718;8.992;2022-12-24T03:22:34;11.27;;;2.93;;
16969;SDS011;8601;48.718;8.992;2022-12-24T03:25:03;6.23;;;2.77;;
16969;SDS011;8601;48.718;8.992;2022-12-24T03:27:31;7.50;;;2.57;;
16969;SDS011;8601;48.718;8.992;2022-12-24T03:30:01;6.53;;;2.43;;
16969;SDS011;8601;48.718;8.992;2022-12-24T03:32:29;7.20;;;2.67;;
16969;SDS011;8601;48.718;8.992;2022-12-24T03:34:58;10.30;;;2.30;;
16969;SDS011;8601;48.718;8.992;2022-12-24T03:37:26;9.10;;;2.37;;
16969;SDS011;8601;48.718;8.992;2022-12-24T03:39:53;8.93;;;2.67;;
16969;SDS011;8601;48.718;8.992;2022-12-24T03:42:19;8.50;;;2.47;;
16969;SDS011;8601;48.718;8.992;2022-12-24T03:44:46;9.63;;;3.00;;
16969;SDS011;8601;48.718;8.992;2022-12-24T03:47:13;6.23;;;2.70;;
16969;SDS011;8601;48.718;8.992;2022-12-24T03:49:40;5.60;;;2.30;;
16969;SDS011;8601;48.718;8.992;2022-12-24T03:52:09;7.33;;;2.60;;
16969;SDS011;8601;48.718;8.992;2022-12-24T03:54:36;9.33;;;2.23;;
16969;SDS011;8601;48.718;8.992;2022-12-24T03:57:03;7.37;;;2.77;;
16969;SDS011;8601;48.718;8.992;2022-12-24T03:59:30;5.97;;;2.03;;
16969;SDS011;8601;48.718;8.992;2022-12-24T04:01:57;6.33;;;2.70;;
16969;SDS011;8601;48.718;8.992;2022-12-24T04:04:26;7.87;;;2.53;;
16969;SDS011;8601;48.718;8.992;2022-12-24T04:06:53;10.27;;;3.13;;
16969;SDS011;8601;48.718;8.992;2022-12-24T04:09:22;4.77;;;2.20;;
16969;SDS011;8601;48.718;8.992;2022-12-24T04:11:49;7.97;;;2.20;;
16969;SDS011;8601;48.718;8.992;2022-12-24T04:14:16;7.73;;;2.97;;
16969;SDS011;8601;48.718;8.992;2022-12-24T04:16:43;8.17;;;2.23;;
16969;SDS011;8601;48.718;8.992;2022-12-24T04:19:10;7.30;;;2.37;;
16969;SDS011;8601;48.718;8.992;2022-12-24T04:21:36;8.07;;;2.47;;
16969;SDS011;8601;48.718;8.992;2022-12-24T04:24:03;6.53;;;2.00;;
16969;SDS011;8601;48.718;8.992;2022-12-24T04:26:32;7.77;;;2.30;;
16969;SDS011;8601;48.718;8.992;2022-12-24T04:28:59;8.63;;;3.20;;
16969;SDS011;8601;48.718;8.992;2022-12-24T04:31:26;7.93;;;2.60;;
16969;SDS011;8601;48.718;8.992;2022-12-24T04:33:53;7.30;;;3.10;;
16969;SDS011;8601;48.718;8.992;2022-12-24T04:38:52;8.97;;;2.30;;
16969;SDS011;8601;48.718;8.992;2022-12-24T04:41:19;9.83;;;2.10;;
16969;SDS011;8601;48.718;8.992;2022-12-24T04:43:49;8.17;;;2.43;;
16969;SDS011;8601;48.718;8.992;2022-12-24T04:46:18;8.00;;;2.70;;
16969;SDS011;8601;48.718;8.992;2022-12-24T04:48:46;8.10;;;2.63;;
16969;SDS011;8601;48.718;8.992;2022-12-24T04:51:14;7.67;;;2.47;;
16969;SDS011;8601;48.718;8.992;2022-12-24T04:53:42;8.03;;;2.30;;
16969;SDS011;8601;48.718;8.992;2022-12-24T04:56:09;10.50;;;2.70;;
16969;SDS011;8601;48.718;8.992;2022-12-24T04:58:38;7.67;;;2.93;;
16969;SDS011;8601;48.718;8.992;2022-12-24T05:01:07;7.83;;;2.40;;
16969;SDS011;8601;48.718;8.992;2022-12-24T05:03:38;8.27;;;2.43;;
16969;SDS011;8601;48.718;8.992;2022-12-24T05:06:18;6.57;;;2.00;;
16969;SDS011;8601;48.718;8.992;2022-12-24T05:08:47;6.40;;;2.70;;
16969;SDS011;8601;48.718;8.992;2022-12-24T05:11:14;6.40;;;2.00;;
16969;SDS011;8601;48.718;8.992;2022-12-24T05:13:41;6.93;;;2.37;;
16969;SDS011;8601;48.718;8.992;2022-12-24T05:16:11;9.43;;;2.27;;
16969;SDS011;8601;48.718;8.992;2022-12-24T05:18:38;7.47;;;2.40;;
16969;SDS011;8601;48.718;8.992;2022-12-24T05:21:09;9.40;;;2.20;;
16969;SDS011;8601;48.718;8.992;2022-12-24T05:23:36;11.53;;;3.47;;
16969;SDS011;8601;48.718;8.992;2022-12-24T05:26:24;12.30;;;2.83;;
16969;SDS011;8601;48.718;8.992;2022-12-24T05:28:54;9.73;;;2.90;;
16969;SDS011;8601;48.718;8.992;2022-12-24T05:31:24;9.00;;;2.37;;
16969;SDS011;8601;48.718;8.992;2022-12-24T05:33:52;6.70;;;2.80;;
16969;SDS011;8601;48.718;8.992;2022-12-24T05:36:20;11.93;;;3.53;;
16969;SDS011;8601;48.718;8.992;2022-12-24T05:38:47;4.77;;;2.23;;
16969;SDS011;8601;48.718;8.992;2022-12-24T05:41:14;7.27;;;2.27;;
16969;SDS011;8601;48.718;8.992;2022-12-24T05:43:41;10.30;;;2.57;;
16969;SDS011;8601;48.718;8.992;2022-12-24T05:46:09;5.13;;;2.00;;
16969;SDS011;8601;48.718;8.992;2022-12-24T05:48:39;7.13;;;2.50;;
16969;SDS011;8601;48.718;8.992;2022-12-24T05:51:07;11.60;;;2.53;;
16969;SDS011;8601;48.718;8.992;2022-12-24T05:53:37;5.93;;;2.33;;
16969;SDS011;8601;48.718;8.992;2022-12-24T05:56:05;8.97;;;2.50;;
16969;SDS011;8601;48.718;8.992;2022-12-24T05:58:34;7.20;;;2.40;;
16969;SDS011;8601;48.718;8.992;2022-12-24T06:01:01;7.40;;;2.27;;
16969;SDS011;8601;48.718;8.992;2022-12-24T06:03:31;8.13;;;2.37;;
16969;SDS011;8601;48.718;8.992;2022-12-24T06:06:00;10.47;;;2.67;;
16969;SDS011;8601;48.718;8.992;2022-12-24T06:08:29;7.63;;;2.60;;
16969;SDS011;8601;48.718;8.992;2022-12-24T06:10:59;8.47;;;2.73;;
16969;SDS011;8601;48.718;8.992;2022-12-24T06:13:28;6.57;;;2.47;;
16969;SDS011;8601;48.718;8.992;2022-12-24T06:15:57;8.10;;;3.13;;
16969;SDS011;8601;48.718;8.992;2022-12-24T06:18:25;5.63;;;2.30;;
16969;SDS011;8601;48.718;8.992;2022-12-24T06:20:54;6.60;;;2.60;;
16969;SDS011;8601;48.718;8.992;2022-12-24T06:23:24;8.80;;;3.20;;
16969;SDS011;8601;48.718;8.992;2022-12-24T06:25:51;9.90;;;2.70;;
16969;SDS011;8601;48.718;8.992;2022-12-24T06:28:29;6.43;;;2.40;;
16969;SDS011;8601;48.718;8.992;2022-12-24T06:30:59;7.83;;;2.57;;
16969;SDS011;8601;48.718;8.992;2022-12-24T06:33:26;8.37;;;2.37;;
16969;SDS011;8601;48.718;8.992;2022-12-24T06:35:53;8.47;;;2.43;;
16969;SDS011;8601;48.718;8.992;2022-12-24T06:38:20;9.87;;;2.77;;
16969;SDS011;8601;48.718;8.992;2022-12-24T06:40:49;7.40;;;2.90;;
16969;SDS011;8601;48.718;8.992;2022-12-24T06:43:15;10.37;;;2.63;;
16969;SDS011;8601;48.718;8.992;2022-12-24T06:45:43;8.07;;;2.57;;
16969;SDS011;8601;48.718;8.992;2022-12-24T06:48:17;6.40;;;2.50;;
16969;SDS011;8601;48.718;8.992;2022-12-24T06:50:44;6.63;;;2.83;;
16969;SDS011;8601;48.718;8.992;2022-12-24T06:53:12;6.50;;;2.63;;
16969;SDS011;8601;48.718;8.992;2022-12-24T06:55:43;10.47;;;2.80;;
16969;SDS011;8601;48.718;8.992;2022-12-24T06:58:12;9.77;;;3.23;;
16969;SDS011;8601;48.718;8.992;2022-12-24T07:00:40;8.73;;;2.73;;
16969;SDS011;8601;48.718;8.992;2022-12-24T07:03:06;7.73;;;2.50;;
16969;SDS011;8601;48.718;8.992;2022-12-24T07:05:33;9.93;;;3.10;;
16969;SDS011;8601;48.718;8.992;2022-12-24T07:08:00;8.67;;;2.80;;
16969;SDS011;8601;48.718;8.992;2022-12-24T07:10:27;9.60;;;2.83;;
16969;SDS011;8601;48.718;8.992;2022-12-24T07:12:54;7.37;;;2.60;;
16969;SDS011;8601;48.718;8.992;2022-12-24T07:15:22;7.93;;;3.10;;
16969;SDS011;8601;48.718;8.992;2022-12-24T07:17:49;9.37;;;2.70;;
16969;SDS011;8601;48.718;8.992;2022-12-24T07:20:16;7.90;;;2.87;;
16969;SDS011;8601;48.718;8.992;2022-12-24T07:25:18;9.00;;;2.83;;
16969;SDS011;8601;48.718;8.992;2022-12-24T07:27:45;8.47;;;2.83;;
16969;SDS011;8601;48.718;8.992;2022-12-24T07:30:12;9.57;;;2.77;;
16969;SDS011;8601;48.718;8.992;2022-12-24T07:32:41;9.47;;;2.77;;
16969;SDS011;8601;48.718;8.992;2022-12-24T07:35:08;6.93;;;3.00;;
16969;SDS011;8601;48.718;8.992;2022-12-24T07:37:35;5.27;;;2.50;;
16969;SDS011;8601;48.718;8.992;2022-12-24T07:40:03;7.43;;;3.10;;
16969;SDS011;8601;48.718;8.992;2022-12-24T07:42:32;7.67;;;2.63;;
16969;SDS011;8601;48.718;8.992;2022-12-24T07:44:59;9.90;;;3.43;;
16969;SDS011;8601;48.718;8.992;2022-12-24T07:47:26;10.47;;;3.07;;
16969;SDS011;8601;48.718;8.992;2022-12-24T07:49:55;5.80;;;2.80;;
16969;SDS011;8601;48.718;8.992;2022-12-24T07:52:21;7.47;;;2.80;;
16969;SDS011;8601;48.718;8.992;2022-12-24T07:54:48;7.13;;;3.00;;
16969;SDS011;8601;48.718;8.992;2022-12-24T07:57:15;7.07;;;2.77;;
16969;SDS011;8601;48.718;8.992;2022-12-24T07:59:42;8.47;;;2.47;;
16969;SDS011;8601;48.718;8.992;2022-12-24T08:02:09;6.93;;;2.47;;
16969;SDS011;8601;48.718;8.992;2022-12-24T08:04:36;11.80;;;2.50;;
16969;SDS011;8601;48.718;8.992;2022-12-24T08:07:05;7.83;;;2.40;;
16969;SDS011;8601;48.718;8.992;2022-12-24T08:09:32;10.93;;;2.90;;
16969;SDS011;8601;48.718;8.992;2022-12-24T08:12:01;6.53;;;2.50;;
16969;SDS011;8601;48.718;8.992;2022-12-24T08:14:29;5.83;;;2.40;;
16969;SDS011;8601;48.718;8.992;2022-12-24T08:16:56;5.37;;;2.40;;
16969;SDS011;8601;48.718;8.992;2022-12-24T08:19:23;8.50;;;2.83;;
16969;SDS011;8601;48.718;8.992;2022-12-24T08:21:50;8.10;;;2.70;;
16969;SDS011;8601;48.718;8.992;2022-12-24T08:24:18;7.23;;;2.23;;
16969;SDS011;8601;48.718;8.992;2022-12-24T08:26:45;10.07;;;2.73;;
16969;SDS011;8601;48.718;8.992;2022-12-24T08:29:12;9.23;;;2.97;;
16969;SDS011;8601;48.718;8.992;2022-12-24T08:31:40;7.47;;;2.50;;
16969;SDS011;8601;48.718;8.992;2022-12-24T08:34:07;11.93;;;3.43;;
16969;SDS011;8601;48.718;8.992;2022-12-24T08:36:36;7.13;;;2.80;;
16969;SDS011;8601;48.718;8.992;2022-12-24T08:39:03;9.63;;;3.30;;
16969;SDS011;8601;48.718;8.992;2022-12-24T08:41:35;11.03;;;2.70;;
16969;SDS011;8601;48.718;8.992;2022-12-24T08:44:02;11.50;;;3.00;;
16969;SDS011;8601;48.718;8.992;2022-12-24T08:46:29;8.73;;;3.00;;
16969;SDS011;8601;48.718;8.992;2022-12-24T08:48:56;11.30;;;3.30;;
16969;SDS011;8601;48.718;8.992;2022-12-24T08:51:22;10.33;;;3.13;;
16969;SDS011;8601;48.718;8.992;2022-12-24T08:53:49;9.67;;;2.90;;
16969;SDS011;8601;48.718;8.992;2022-12-24T08:56:18;8.43;;;2.93;;
16969;SDS011;8601;48.718;8.992;2022-12-24T08:58:47;13.47;;;3.13;;
16969;SDS011;8601;48.718;8.992;2022-12-24T09:01:15;9.87;;;3.53;;
16969;SDS011;8601;48.718;8.992;2022-12-24T09:03:44;8.23;;;3.00;;
16969;SDS011;8601;48.718;8.992;2022-12-24T09:06:11;9.07;;;2.93;;
16969;SDS011;8601;48.718;8.992;2022-12-24T09:08:39;10.67;;;3.90;;
16969;SDS011;8601;48.718;8.992;2022-12-24T09:11:08;8.20;;;3.37;;
16969;SDS011;8601;48.718;8.992;2022-12-24T09:13:36;11.03;;;3.03;;
16969;SDS011;8601;48.718;8.992;2022-12-24T09:16:05;10.53;;;3.07;;
16969;SDS011;8601;48.718;8.992;2022-12-24T09:18:33;12.60;;;3.17;;
16969;SDS011;8601;48.718;8.992;2022-12-24T09:21:00;9.80;;;3.40;;
16969;SDS011;8601;48.718;8.992;2022-12-24T09:23:28;12.33;;;3.40;;
16969;SDS011;8601;48.718;8.992;2022-12-24T09:25:57;9.17;;;3.10;;
16969;SDS011;8601;48.718;8.992;2022-12-24T09:28:24;11.20;;;3.07;;
16969;SDS011;8601;48.718;8.992;2022-12-24T09:30:55;9.37;;;2.80;;
16969;SDS011;8601;48.718;8.992;2022-12-24T09:33:24;7.73;;;2.90;;
16969;SDS011;8601;48.718;8.992;2022-12-24T09:35:51;10.57;;;3.57;;
16969;SDS011;8601;48.718;8.992;2022-12-24T09:38:19;11.40;;;3.47;;
16969;SDS011;8601;48.718;8.992;2022-12-24T09:40:46;10.37;;;3.13;;
16969;SDS011;8601;48.718;8.992;2022-12-24T09:43:15;11.83;;;3.10;;
16969;SDS011;8601;48.718;8.992;2022-12-24T09:45:45;11.63;;;3.13;;
16969;SDS011;8601;48.718;8.992;2022-12-24T09:48:19;10.93;;;3.67;;
16969;SDS011;8601;48.718;8.992;2022-12-24T09:50:50;10.63;;;3.27;;
16969;SDS011;8601;48.718;8.992;2022-12-24T09:53:23;10.17;;;3.30;;
16969;SDS011;8601;48.718;8.992;2022-12-24T09:55:55;11.03;;;3.57;;
16969;SDS011;8601;48.718;8.992;2022-12-24T09:58:24;11.37;;;3.27;;
16969;SDS011;8601;48.718;8.992;2022-12-24T10:00:56;12.70;;;3.77;;
16969;SDS011;8601;48.718;8.992;2022-12-24T10:03:23;12.30;;;3.37;;
16969;SDS011;8601;48.718;8.992;2022-12-24T10:05:54;9.10;;;3.23;;
16969;SDS011;8601;48.718;8.992;2022-12-24T10:08:31;10.57;;;3.33;;
16969;SDS011;8601;48.718;8.992;2022-12-24T10:11:10;13.43;;;3.93;;
16969;SDS011;8601;48.718;8.992;2022-12-24T10:13:56;13.40;;;3.70;;
16969;SDS011;8601;48.718;8.992;2022-12-24T10:16:31;10.30;;;3.00;;
16969;SDS011;8601;48.718;8.992;2022-12-24T10:19:09;10.90;;;3.53;;
16969;SDS011;8601;48.718;8.992;2022-12-24T10:21:43;12.03;;;3.13;;
16969;SDS011;8601;48.718;8.992;2022-12-24T10:24:20;9.00;;;3.30;;
16969;SDS011;8601;48.718;8.992;2022-12-24T10:26:50;11.23;;;3.20;;
16969;SDS011;8601;48.718;8.992;2022-12-24T10:29:22;14.23;;;3.40;;
16969;SDS011;8601;48.718;8.992;2022-12-24T10:31:53;8.50;;;2.87;;
16969;SDS011;8601;48.718;8.992;2022-12-24T10:34:42;10.43;;;2.60;;
16969;SDS011;8601;48.718;8.992;2022-12-24T10:37:13;10.17;;;3.33;;
16969;SDS011;8601;48.718;8.992;2022-12-24T10:39:49;8.07;;;3.23;;
16969;SDS011;8601;48.718;8.992;2022-12-24T10:42:18;7.33;;;2.73;;
16969;SDS011;8601;48.718;8.992;2022-12-24T10:44:49;10.07;;;3.17;;
16969;SDS011;8601;48.718;8.992;2022-12-24T10:47:20;9.53;;;3.00;;
16969;SDS011;8601;48.718;8.992;2022-12-24T10:49:51;9.17;;;2.50;;
16969;SDS011;8601;48.718;8.992;2022-12-24T10:52:26;7.53;;;2.63;;
16969;SDS011;8601;48.718;8.992;2022-12-24T10:55:05;9.87;;;2.70;;
16969;SDS011;8601;48.718;8.992;2022-12-24T10:57:35;10.20;;;3.13;;
16969;SDS011;8601;48.718;8.992;2022-12-24T11:00:03;7.60;;;2.93;;
16969;SDS011;8601;48.718;8.992;2022-12-24T11:02:32;11.53;;;2.67;;
16969;SDS011;8601;48.718;8.992;2022-12-24T11:05:03;8.90;;;2.90;;
16969;SDS011;8601;48.718;8.992;2022-12-24T11:07:33;8.20;;;2.77;;
16969;SDS011;8601;48.718;8.992;2022-12-24T11:10:01;7.53;;;2.47;;
16969;SDS011;8601;48.718;8.992;2022-12-24T11:12:33;9.17;;;2.83;;
16969;SDS011;8601;48.718;8.992;2022-12-24T11:15:05;8.27;;;2.50;;
16969;SDS011;8601;48.718;8.992;2022-12-24T11:17:40;10.30;;;2.80;;
16969;SDS011;8601;48.718;8.992;2022-12-24T11:20:14;8.50;;;3.00;;
16969;SDS011;8601;48.718;8.992;2022-12-24T11:22:47;9.70;;;3.03;;
16969;SDS011;8601;48.718;8.992;2022-12-24T11:25:18;11.17;;;3.27;;
16969;SDS011;8601;48.718;8.992;2022-12-24T11:27:47;9.47;;;3.40;;
16969;SDS011;8601;48.718;8.992;2022-12-24T11:30:26;11.30;;;3.90;;
16969;SDS011;8601;48.718;8.992;2022-12-24T11:33:18;10.47;;;3.40;;
16969;SDS011;8601;48.718;8.992;2022-12-24T11:35:47;10.10;;;2.80;;
16969;SDS011;8601;48.718;8.992;2022-12-24T11:38:20;11.00;;;3.10;;
16969;SDS011;8601;48.718;8.992;2022-12-24T11:40:49;11.10;;;3.10;;
16969;SDS011;8601;48.718;8.992;2022-12-24T11:43:24;8.33;;;3.07;;
16969;SDS011;8601;48.718;8.992;2022-12-24T11:46:10;9.07;;;3.30;;
16969;SDS011;8601;48.718;8.992;2022-12-24T11:48:43;10.33;;;3.30;;
16969;SDS011;8601;48.718;8.992;2022-12-24T11:51:18;10.50;;;3.67;;
16969;SDS011;8601;48.718;8.992;2022-12-24T11:53:52;9.53;;;2.77;;
16969;SDS011;8601;48.718;8.992;2022-12-24T11:56:29;7.97;;;2.87;;
16969;SDS011;8601;48.718;8.992;2022-12-24T11:59:02;9.87;;;2.87;;
16969;SDS011;8601;48.718;8.992;2022-12-24T12:01:36;9.40;;;2.60;;
16969;SDS011;8601;48.718;8.992;2022-12-24T12:04:09;9.87;;;2.63;;
16969;SDS011;8601;48.718;8.992;2022-12-24T12:06:40;10.40;;;3.03;;
16969;SDS011;8601;48.718;8.992;2022-12-24T12:09:12;11.20;;;3.47;;
16969;SDS011;8601;48.718;8.992;2022-12-24T12:11:43;7.40;;;3.20;;
16969;SDS011;8601;48.718;8.992;2022-12-24T12:14:15;8.67;;;3.30;;
16969;SDS011;8601;48.718;8.992;2022-12-24T12:16:48;11.63;;;3.10;;
16969;SDS011;8601;48.718;8.992;2022-12-24T12:19:29;8.60;;;2.90;;
16969;SDS011;8601;48.718;8.992;2022-12-24T12:22:02;7.17;;;2.40;;
16969;SDS011;8601;48.718;8.992;2022-12-24T12:24:35;8.63;;;2.57;;
16969;SDS011;8601;48.718;8.992;2022-12-24T12:27:09;10.97;;;2.93;;
16969;SDS011;8601;48.718;8.992;2022-12-24T12:29:44;8.50;;;2.87;;
16969;SDS011;8601;48.718;8.992;2022-12-24T12:32:20;11.93;;;3.53;;
16969;SDS011;8601;48.718;8.992;2022-12-24T12:34:54;8.63;;;2.90;;
16969;SDS011;8601;48.718;8.992;2022-12-24T12:37:31;13.03;;;3.70;;
16969;SDS011;8601;48.718;8.992;2022-12-24T12:40:05;12.73;;;3.03;;
16969;SDS011;8601;48.718;8.992;2022-12-24T12:42:39;10.83;;;2.40;;
16969;SDS011;8601;48.718;8.992;2022-12-24T12:45:15;9.27;;;3.10;;
16969;SDS011;8601;48.718;8.992;2022-12-24T12:47:57;10.83;;;2.80;;
16969;SDS011;8601;48.718;8.992;2022-12-24T12:50:37;9.60;;;2.67;;
16969;SDS011;8601;48.718;8.992;2022-12-24T12:53:16;7.93;;;2.70;;
16969;SDS011;8601;48.718;8.992;2022-12-24T12:55:58;12.37;;;2.93;;
16969;SDS011;8601;48.718;8.992;2022-12-24T12:58:33;8.70;;;2.80;;
16969;SDS011;8601;48.718;8.992;2022-12-24T13:01:05;10.67;;;2.83;;
16969;SDS011;8601;48.718;8.992;2022-12-24T13:06:50;9.83;;;3.13;;
16969;SDS011;8601;48.718;8.992;2022-12-24T13:09:42;10.13;;;2.70;;
16969;SDS011;8601;48.718;8.992;2022-12-24T13:12:32;8.57;;;2.77;;
16969;SDS011;8601;48.718;8.992;2022-12-24T13:15:25;9.03;;;3.00;;
16969;SDS011;8601;48.718;8.992;2022-12-24T13:18:31;11.90;;;3.07;;
16969;SDS011;8601;48.718;8.992;2022-12-24T13:21:13;11.23;;;3.23;;
16969;SDS011;8601;48.718;8.992;2022-12-24T13:23:42;7.43;;;2.93;;
16969;SDS011;8601;48.718;8.992;2022-12-24T13:26:10;8.80;;;2.80;;
16969;SDS011;8601;48.718;8.992;2022-12-24T13:28:40;8.67;;;3.03;;
16969;SDS011;8601;48.718;8.992;2022-12-24T13:33:59;9.27;;;3.00;;
16969;SDS011;8601;48.718;8.992;2022-12-24T13:39:23;9.33;;;2.77;;
16969;SDS011;8601;48.718;8.992;2022-12-24T13:41:50;9.07;;;2.63;;
16969;SDS011;8601;48.718;8.992;2022-12-24T13:44:22;9.77;;;2.70;;
16969;SDS011;8601;48.718;8.992;2022-12-24T13:46:58;9.70;;;2.53;;
16969;SDS011;8601;48.718;8.992;2022-12-24T13:49:45;11.33;;;2.90;;
16969;SDS011;8601;48.718;8.992;2022-12-24T13:52:19;12.03;;;3.00;;
16969;SDS011;8601;48.718;8.992;2022-12-24T13:55:03;8.67;;;3.20;;
16969;SDS011;8601;48.718;8.992;2022-12-24T13:57:42;8.30;;;2.40;;
16969;SDS011;8601;48.718;8.992;2022-12-24T14:03:24;11.17;;;3.27;;
16969;SDS011;8601;48.718;8.992;2022-12-24T14:05:55;6.50;;;2.37;;
16969;SDS011;8601;48.718;8.992;2022-12-24T14:08:27;8.20;;;3.10;;
16969;SDS011;8601;48.718;8.992;2022-12-24T14:11:02;8.50;;;2.77;;
16969;SDS011;8601;48.718;8.992;2022-12-24T14:16:41;8.57;;;2.93;;
16969;SDS011;8601;48.718;8.992;2022-12-24T14:19:12;7.73;;;2.90;;
16969;SDS011;8601;48.718;8.992;2022-12-24T14:21:43;8.97;;;2.70;;
16969;SDS011;8601;48.718;8.992;2022-12-24T14:24:21;9.73;;;2.90;;
16969;SDS011;8601;48.718;8.992;2022-12-24T14:26:51;7.93;;;2.30;;
16969;SDS011;8601;48.718;8.992;2022-12-24T14:29:23;10.60;;;2.90;;
16969;SDS011;8601;48.718;8.992;2022-12-24T14:31:56;8.13;;;2.63;;
16969;SDS011;8601;48.718;8.992;2022-12-24T14:34:28;8.50;;;2.50;;
16969;SDS011;8601;48.718;8.992;2022-12-24T14:36:55;7.83;;;2.63;;
16969;SDS011;8601;48.718;8.992;2022-12-24T14:39:28;10.03;;;3.40;;
16969;SDS011;8601;48.718;8.992;2022-12-24T14:42:03;9.67;;;3.20;;
16969;SDS011;8601;48.718;8.992;2022-12-24T14:44:45;10.10;;;3.47;;
16969;SDS011;8601;48.718;8.992;2022-12-24T14:47:24;8.43;;;2.40;;
16969;SDS011;8601;48.718;8.992;2022-12-24T14:50:03;6.60;;;2.47;;
16969;SDS011;8601;48.718;8.992;2022-12-24T14:52:50;7.23;;;2.50;;
16969;SDS011;8601;48.718;8.992;2022-12-24T14:55:27;13.00;;;3.07;;
16969;SDS011;8601;48.718;8.992;2022-12-24T15:00:49;8.73;;;2.93;;
16969;SDS011;8601;48.718;8.992;2022-12-24T15:03:20;6.43;;;2.87;;
16969;SDS011;8601;48.718;8.992;2022-12-24T15:05:49;10.27;;;3.23;;
16969;SDS011;8601;48.718;8.992;2022-12-24T15:08:18;7.73;;;2.83;;
16969;SDS011;8601;48.718;8.992;2022-12-24T15:10:52;7.70;;;2.83;;
16969;SDS011;8601;48.718;8.992;2022-12-24T15:13:21;8.00;;;3.00;;
16969;SDS011;8601;48.718;8.992;2022-12-24T15:15:54;7.97;;;2.67;;
16969;SDS011;8601;48.718;8.992;2022-12-24T15:18:24;10.10;;;3.13;;
16969;SDS011;8601;48.718;8.992;2022-12-24T15:20:55;11.77;;;3.60;;
16969;SDS011;8601;48.718;8.992;2022-12-24T15:23:26;8.43;;;3.30;;
16969;SDS011;8601;48.718;8.992;2022-12-24T15:26:06;13.80;;;3.40;;
16969;SDS011;8601;48.718;8.992;2022-12-24T15:28:39;8.77;;;3.53;;
16969;SDS011;8601;48.718;8.992;2022-12-24T15:31:07;11.30;;;4.27;;
16969;SDS011;8601;48.718;8.992;2022-12-24T15:33:38;8.80;;;4.00;;
16969;SDS011;8601;48.718;8.992;2022-12-24T15:36:07;9.67;;;4.77;;
16969;SDS011;8601;48.718;8.992;2022-12-24T15:38:35;8.47;;;4.57;;
16969;SDS011;8601;48.718;8.992;2022-12-24T15:41:07;12.03;;;4.27;;
16969;SDS011;8601;48.718;8.992;2022-12-24T15:43:42;8.73;;;4.70;;
16969;SDS011;8601;48.718;8.992;2022-12-24T15:46:16;13.93;;;6.23;;
16969;SDS011;8601;48.718;8.992;2022-12-24T15:48:46;14.40;;;7.80;;